Time;durP1;ratioP1;P1;durP2;ratioP2;P2;SDS_P1;SDS_P2;PMS_P1;PMS_P2;Temp;Humidity;BMP_temperature;BMP_pressure;BME280_temperature;BME280_humidity;BME280_pressure;Samples;Min_cycle;Max_cycle;Signal;HPM_P1;HPM_P2
2022/01/19 00:01:00;;;;;;;10.07;7.65;;;;;;;;;;5130488;28;20195;-67
2022/01/19 00:03:27;;;;;;;10.75;7.13;;;;;;;;;;5129722;28;20191;-67
2022/01/19 00:05:53;;;;;;;8.30;6.82;;;;;;;;;;5128438;28;20194;-67
2022/01/19 00:08:21;;;;;;;8.85;6.70;;;;;;;;;;5129484;28;20195;-67
2022/01/19 00:10:49;;;;;;;8.52;7.03;;;;;;;;;;5129370;28;20229;-67
2022/01/19 00:13:16;;;;;;;10.02;6.97;;;;;;;;;;5128624;28;20203;-67
2022/01/19 00:15:42;;;;;;;8.02;7.20;;;;;;;;;;5123331;28;20222;-67
2022/01/19 00:18:10;;;;;;;9.50;7.57;;;;;;;;;;5129875;28;20191;-67
2022/01/19 00:20:37;;;;;;;9.85;7.15;;;;;;;;;;5127848;28;20203;-67
2022/01/19 00:23:04;;;;;;;9.88;7.90;;;;;;;;;;5129526;28;20386;-68
2022/01/19 00:25:31;;;;;;;11.60;7.20;;;;;;;;;;5129567;28;20538;-69
2022/01/19 00:27:57;;;;;;;8.40;7.00;;;;;;;;;;5129298;28;20514;-68
2022/01/19 00:30:24;;;;;;;11.00;7.20;;;;;;;;;;5121575;28;20199;-68
2022/01/19 00:32:50;;;;;;;7.63;6.38;;;;;;;;;;5108989;28;20267;-68
2022/01/19 00:35:18;;;;;;;9.15;6.43;;;;;;;;;;5108905;28;20212;-68
2022/01/19 00:37:44;;;;;;;8.57;7.00;;;;;;;;;;5108547;28;20195;-68
2022/01/19 00:40:13;;;;;;;10.35;6.22;;;;;;;;;;5113364;28;20510;-68
2022/01/19 00:42:39;;;;;;;11.40;6.95;;;;;;;;;;5128731;28;20454;-67
2022/01/19 00:45:06;;;;;;;14.07;7.10;;;;;;;;;;5128474;28;20211;-67
2022/01/19 00:47:33;;;;;;;9.77;7.50;;;;;;;;;;5128229;28;20217;-67
2022/01/19 00:49:59;;;;;;;6.72;6.13;;;;;;;;;;5124702;28;20199;-67
2022/01/19 00:52:27;;;;;;;9.27;7.18;;;;;;;;;;5107626;28;20623;-67
2022/01/19 00:54:54;;;;;;;10.25;6.22;;;;;;;;;;5110524;28;20561;-67
2022/01/19 00:57:20;;;;;;;8.00;6.43;;;;;;;;;;5129143;28;20203;-67
2022/01/19 00:59:47;;;;;;;7.72;6.43;;;;;;;;;;5126890;28;20232;-67
2022/01/19 01:02:13;;;;;;;10.20;6.95;;;;;;;;;;5108106;28;20233;-67
2022/01/19 01:04:39;;;;;;;7.95;6.50;;;;;;;;;;5107426;28;20191;-67
2022/01/19 01:07:06;;;;;;;7.20;6.45;;;;;;;;;;5107945;28;20203;-67
2022/01/19 01:09:34;;;;;;;10.32;6.75;;;;;;;;;;5109608;28;20203;-67
2022/01/19 01:12:02;;;;;;;9.40;6.93;;;;;;;;;;5129176;28;20195;-67
2022/01/19 01:18:17;;;;;;;11.75;7.32;;;;;;;;;;5117037;28;20206;-67
2022/01/19 01:20:02;;;;;;;11.57;6.97;;;;;;;;;;5113826;28;20210;-67
2022/01/19 01:22:29;;;;;;;8.48;7.00;;;;;;;;;;5128775;28;20379;-67
2022/01/19 01:24:57;;;;;;;8.40;6.90;;;;;;;;;;5128618;28;20391;-67
2022/01/19 01:27:23;;;;;;;10.23;6.80;;;;;;;;;;5128719;28;20195;-67
2022/01/19 01:29:49;;;;;;;10.10;6.80;;;;;;;;;;5124544;28;20203;-68
2022/01/19 01:32:16;;;;;;;11.25;6.90;;;;;;;;;;5108240;28;20196;-68
2022/01/19 01:34:42;;;;;;;8.35;6.10;;;;;;;;;;5117729;28;20356;-68
2022/01/19 01:37:09;;;;;;;9.73;6.90;;;;;;;;;;5113452;28;20203;-68
2022/01/19 01:39:38;;;;;;;11.63;6.90;;;;;;;;;;5108217;28;20195;-68
2022/01/19 01:42:10;;;;;;;7.63;6.72;;;;;;;;;;5105561;28;20398;-65
2022/01/19 01:44:37;;;;;;;10.18;7.10;;;;;;;;;;5112445;28;20211;-65
2022/01/19 01:47:04;;;;;;;8.70;7.35;;;;;;;;;;5122963;28;20453;-65
2022/01/19 01:49:44;;;;;;;7.85;7.00;;;;;;;;;;5123489;28;20437;-65
2022/01/19 01:55:08;;;;;;;10.68;7.38;;;;;;;;;;5079891;28;20208;-67
2022/01/19 01:57:36;;;;;;;12.98;7.47;;;;;;;;;;5098134;28;20206;-67
2022/01/19 02:00:03;;;;;;;13.38;8.65;;;;;;;;;;5102950;28;20195;-67
2022/01/19 02:02:30;;;;;;;11.48;7.60;;;;;;;;;;5103201;28;20204;-67
2022/01/19 02:04:56;;;;;;;9.10;7.25;;;;;;;;;;5106158;28;20192;-67
2022/01/19 02:07:40;;;;;;;10.57;7.68;;;;;;;;;;5106245;28;20426;-67
2022/01/19 02:10:15;;;;;;;13.85;8.32;;;;;;;;;;5107416;28;20417;-67
2022/01/19 02:23:47;;;;;;;13.57;9.43;;;;;;;;;;5107176;28;20221;-67
2022/01/19 02:26:19;;;;;;;13.30;9.13;;;;;;;;;;5106864;28;20188;-67
2022/01/19 02:29:07;;;;;;;13.50;9.40;;;;;;;;;;5112134;28;20572;-67
2022/01/19 02:31:52;;;;;;;13.57;9.75;;;;;;;;;;5122936;28;20179;-65
2022/01/19 02:43:03;;;;;;;16.98;10.90;;;;;;;;;;5086553;28;20188;-65
2022/01/19 02:50:58;;;;;;;13.27;10.48;;;;;;;;;;5107238;28;20194;-67
2022/01/19 02:53:26;;;;;;;13.95;10.52;;;;;;;;;;5107058;28;20207;-67
2022/01/19 02:55:52;;;;;;;19.17;9.10;;;;;;;;;;5122223;28;20219;-67
2022/01/19 02:58:21;;;;;;;14.25;9.30;;;;;;;;;;5127438;28;20195;-67
2022/01/19 03:09:02;;;;;;;12.80;9.05;;;;;;;;;;5102410;28;20199;-66
2022/01/19 03:11:28;;;;;;;15.05;9.88;;;;;;;;;;5103585;28;20257;-65
2022/01/19 03:13:55;;;;;;;15.68;9.90;;;;;;;;;;5102288;28;20207;-65
2022/01/19 03:16:21;;;;;;;15.57;9.63;;;;;;;;;;5122543;28;20230;-65
2022/01/19 03:18:48;;;;;;;12.55;9.23;;;;;;;;;;5126107;28;20202;-65
2022/01/19 03:21:15;;;;;;;14.52;9.32;;;;;;;;;;5126317;28;20210;-65
2022/01/19 03:23:41;;;;;;;13.25;8.85;;;;;;;;;;5126115;28;20191;-65
2022/01/19 03:26:09;;;;;;;14.18;9.63;;;;;;;;;;5107664;28;20211;-65
2022/01/19 03:28:36;;;;;;;19.58;10.40;;;;;;;;;;5106132;28;20196;-65
2022/01/19 03:31:03;;;;;;;15.80;9.63;;;;;;;;;;5106061;28;20195;-65
2022/01/19 03:33:29;;;;;;;12.65;9.00;;;;;;;;;;5105916;28;20454;-65
2022/01/19 03:35:55;;;;;;;12.85;9.45;;;;;;;;;;5121812;28;20219;-65
2022/01/19 03:38:22;;;;;;;14.68;10.35;;;;;;;;;;5125943;28;20191;-65
2022/01/19 03:40:49;;;;;;;13.63;10.20;;;;;;;;;;5126044;28;20195;-65
2022/01/19 03:43:16;;;;;;;19.08;10.68;;;;;;;;;;5126229;28;20195;-65
2022/01/19 03:45:50;;;;;;;13.57;9.98;;;;;;;;;;5110921;28;20212;-65
2022/01/19 03:48:32;;;;;;;14.80;10.23;;;;;;;;;;5105828;28;20251;-65
2022/01/19 03:50:58;;;;;;;14.45;9.68;;;;;;;;;;5105517;28;20215;-65
2022/01/19 03:53:25;;;;;;;17.33;10.60;;;;;;;;;;5105197;28;20196;-65
2022/01/19 03:55:51;;;;;;;18.38;10.43;;;;;;;;;;5120315;28;20226;-65
2022/01/19 03:58:19;;;;;;;13.52;9.63;;;;;;;;;;5125444;28;20191;-65
2022/01/19 04:00:46;;;;;;;14.95;9.98;;;;;;;;;;5111242;28;20203;-65
2022/01/19 04:03:16;;;;;;;15.65;10.25;;;;;;;;;;5105535;28;20187;-65
2022/01/19 04:05:54;;;;;;;13.07;10.60;;;;;;;;;;5118489;28;20546;-68
2022/01/19 04:08:20;;;;;;;12.70;9.70;;;;;;;;;;5125742;28;20379;-66
2022/01/19 04:10:47;;;;;;;13.57;9.50;;;;;;;;;;5125485;28;20202;-66
2022/01/19 04:13:24;;;;;;;12.77;10.02;;;;;;;;;;5125678;28;20202;-66
2022/01/19 04:15:53;;;;;;;15.73;10.23;;;;;;;;;;5120889;28;20426;-66
2022/01/19 04:18:19;;;;;;;13.25;9.95;;;;;;;;;;5125297;28;20497;-68
2022/01/19 04:20:49;;;;;;;13.95;10.02;;;;;;;;;;5125165;28;20210;-68
2022/01/19 04:23:16;;;;;;;16.95;10.80;;;;;;;;;;5125153;27;20203;-69
2022/01/19 04:25:42;;;;;;;13.60;9.98;;;;;;;;;;5110583;28;20195;-67
2022/01/19 04:28:08;;;;;;;16.42;10.27;;;;;;;;;;5104706;28;20196;-68
2022/01/19 04:30:35;;;;;;;13.07;9.48;;;;;;;;;;5104256;28;20496;-66
2022/01/19 04:33:08;;;;;;;14.80;10.15;;;;;;;;;;5105060;28;20203;-67
2022/01/19 04:35:44;;;;;;;12.63;9.68;;;;;;;;;;5117262;28;20382;-70
2022/01/19 04:54:11;;;;;;;14.55;9.82;;;;;;;;;;5078442;28;20215;-68
2022/01/19 05:05:49;;;;;;;12.15;9.25;;;;;;;;;;5118190;28;20218;-69
2022/01/19 05:08:36;;;;;;;17.00;9.93;;;;;;;;;;5125327;28;20401;-70
2022/01/19 05:13:51;;;;;;;14.07;11.10;;;;;;;;;;5124478;28;20381;-69
2022/01/19 05:16:19;;;;;;;14.77;10.32;;;;;;;;;;5104974;28;20215;-67
2022/01/19 05:18:45;;;;;;;16.48;10.80;;;;;;;;;;5105076;28;20279;-69
2022/01/19 05:21:13;;;;;;;19.65;10.95;;;;;;;;;;5105790;28;20211;-68
2022/01/19 05:23:39;;;;;;;19.73;12.40;;;;;;;;;;5106044;28;20196;-68
2022/01/19 05:26:06;;;;;;;16.92;10.15;;;;;;;;;;5106373;28;20188;-68
2022/01/19 05:28:32;;;;;;;15.73;11.20;;;;;;;;;;5103802;28;20389;-65
2022/01/19 05:30:58;;;;;;;14.32;11.27;;;;;;;;;;5103453;28;20196;-65
2022/01/19 05:33:25;;;;;;;23.23;11.70;;;;;;;;;;5103423;28;20392;-65
2022/01/19 05:35:51;;;;;;;15.27;10.95;;;;;;;;;;5103432;28;20418;-65
2022/01/19 05:38:19;;;;;;;18.58;11.20;;;;;;;;;;5103609;28;20203;-65
2022/01/19 05:40:45;;;;;;;15.20;11.13;;;;;;;;;;5119501;28;20195;-65
2022/01/19 05:43:12;;;;;;;13.55;10.80;;;;;;;;;;5126031;28;20195;-68
2022/01/19 05:45:38;;;;;;;18.80;11.48;;;;;;;;;;5111219;28;20212;-68
2022/01/19 05:48:06;;;;;;;14.55;10.93;;;;;;;;;;5105315;28;20202;-68
2022/01/19 05:50:33;;;;;;;17.27;11.63;;;;;;;;;;5105463;28;20203;-68
2022/01/19 05:52:59;;;;;;;14.55;11.07;;;;;;;;;;5105275;28;20203;-68
2022/01/19 05:55:27;;;;;;;16.55;11.77;;;;;;;;;;5110206;28;20378;-69
2022/01/19 05:57:54;;;;;;;20.02;11.80;;;;;;;;;;5119985;28;20426;-68
2022/01/19 06:00:20;;;;;;;16.85;10.38;;;;;;;;;;5123160;28;20195;-67
2022/01/19 06:02:46;;;;;;;16.48;11.98;;;;;;;;;;5123227;28;20195;-67
2022/01/19 06:05:13;;;;;;;20.23;12.15;;;;;;;;;;5110929;28;20396;-67
2022/01/19 06:07:44;;;;;;;19.58;11.88;;;;;;;;;;5105948;28;20210;-65
2022/01/19 06:10:42;;;;;;;16.27;10.82;;;;;;;;;;5123473;28;20410;-65
2022/01/19 06:12:59;;;;;;;19.85;11.73;;;;;;;;;;5121771;28;20222;-65
2022/01/19 06:15:26;;;;;;;18.48;12.40;;;;;;;;;;5111573;28;20211;-65
2022/01/19 06:17:52;;;;;;;20.33;12.00;;;;;;;;;;5104425;28;20196;-67
2022/01/19 06:20:19;;;;;;;21.63;12.55;;;;;;;;;;5104599;28;20218;-67
2022/01/19 06:22:45;;;;;;;20.63;12.98;;;;;;;;;;5123886;28;20202;-66
2022/01/19 06:25:11;;;;;;;15.55;12.38;;;;;;;;;;5122616;28;20195;-65
2022/01/19 06:27:38;;;;;;;17.05;11.77;;;;;;;;;;5122906;28;20369;-65
2022/01/19 06:30:07;;;;;;;17.73;12.80;;;;;;;;;;5123058;28;20408;-65
2022/01/19 06:32:33;;;;;;;17.85;11.85;;;;;;;;;;5104635;28;20202;-65
2022/01/19 06:34:59;;;;;;;21.02;12.95;;;;;;;;;;5102382;28;20226;-65
2022/01/19 06:37:26;;;;;;;19.88;12.00;;;;;;;;;;5104157;28;20219;-67
2022/01/19 06:39:52;;;;;;;14.95;11.57;;;;;;;;;;5104515;28;20196;-68
2022/01/19 06:42:19;;;;;;;18.88;12.43;;;;;;;;;;5118938;28;20391;-67
2022/01/19 06:44:45;;;;;;;14.73;12.23;;;;;;;;;;5124576;28;20215;-67
2022/01/19 06:47:13;;;;;;;18.05;11.30;;;;;;;;;;5110724;28;20202;-68
2022/01/19 06:49:39;;;;;;;21.38;12.63;;;;;;;;;;5104319;28;20202;-67
2022/01/19 06:52:06;;;;;;;19.80;12.82;;;;;;;;;;5106193;28;20196;-67
2022/01/19 06:54:32;;;;;;;14.18;11.15;;;;;;;;;;5108758;28;20210;-67
2022/01/19 06:56:59;;;;;;;15.98;12.05;;;;;;;;;;5109136;28;20542;-66
2022/01/19 06:59:25;;;;;;;19.70;12.45;;;;;;;;;;5106135;28;20195;-65
2022/01/19 07:01:52;;;;;;;18.13;11.48;;;;;;;;;;5117159;28;20194;-65
2022/01/19 07:04:20;;;;;;;23.65;13.25;;;;;;;;;;5126760;28;20195;-65
2022/01/19 07:06:46;;;;;;;21.27;12.43;;;;;;;;;;5121399;28;20502;-65
2022/01/19 07:09:12;;;;;;;21.02;13.38;;;;;;;;;;5113891;27;20206;-54
2022/01/19 07:11:39;;;;;;;16.42;12.70;;;;;;;;;;5118014;27;20230;-56
2022/01/19 07:14:08;;;;;;;18.55;12.70;;;;;;;;;;5120439;28;20206;-59
2022/01/19 07:16:35;;;;;;;19.73;12.38;;;;;;;;;;5107522;27;20546;-54
2022/01/19 07:19:01;;;;;;;18.00;11.93;;;;;;;;;;5105033;28;20215;-55
2022/01/19 07:21:29;;;;;;;18.80;11.82;;;;;;;;;;5112988;28;20221;-54
2022/01/19 07:23:55;;;;;;;17.92;12.25;;;;;;;;;;5117107;28;20211;-55
2022/01/19 07:26:22;;;;;;;19.58;13.48;;;;;;;;;;5112237;28;20200;-54
2022/01/19 07:28:48;;;;;;;27.35;14.35;;;;;;;;;;5111924;27;20206;-57
2022/01/19 07:31:17;;;;;;;23.90;13.70;;;;;;;;;;5120287;28;20217;-57
2022/01/19 07:33:44;;;;;;;23.38;14.32;;;;;;;;;;5119517;28;20195;-56
2022/01/19 07:36:10;;;;;;;22.95;14.32;;;;;;;;;;5119934;28;20255;-57
2022/01/19 07:38:38;;;;;;;20.67;13.07;;;;;;;;;;5119349;28;20238;-55
2022/01/19 07:41:04;;;;;;;20.05;13.88;;;;;;;;;;5105904;28;20199;-54
2022/01/19 07:43:31;;;;;;;19.92;13.40;;;;;;;;;;5109212;28;20211;-55
2022/01/19 07:45:57;;;;;;;18.13;12.75;;;;;;;;;;5134507;27;20230;-56
2022/01/19 07:48:23;;;;;;;21.60;13.00;;;;;;;;;;5140190;27;20207;-56
2022/01/19 07:50:50;;;;;;;21.98;12.45;;;;;;;;;;5124073;27;20510;-52
2022/01/19 07:53:16;;;;;;;20.63;12.02;;;;;;;;;;5141172;27;20197;-55
2022/01/19 07:55:45;;;;;;;30.48;13.05;;;;;;;;;;5125526;27;20538;-58
2022/01/19 07:58:12;;;;;;;22.55;12.23;;;;;;;;;;5111653;28;20306;-58
2022/01/19 08:00:38;;;;;;;22.63;12.48;;;;;;;;;;5100046;28;20258;-59
2022/01/19 08:03:05;;;;;;;18.45;12.20;;;;;;;;;;5102525;28;20208;-59
2022/01/19 08:05:31;;;;;;;21.02;12.18;;;;;;;;;;5112180;27;20214;-57
2022/01/19 08:07:58;;;;;;;24.35;13.18;;;;;;;;;;5123731;28;20210;-58
2022/01/19 08:10:24;;;;;;;18.42;12.30;;;;;;;;;;5123174;28;20206;-58
2022/01/19 08:12:52;;;;;;;27.88;14.45;;;;;;;;;;5124419;28;20207;-58
2022/01/19 08:15:19;;;;;;;21.05;13.48;;;;;;;;;;5112630;28;20215;-59
2022/01/19 08:17:45;;;;;;;17.48;12.32;;;;;;;;;;5124634;28;20230;-59
2022/01/19 08:20:12;;;;;;;18.17;12.48;;;;;;;;;;5122293;28;20215;-59
2022/01/19 08:22:39;;;;;;;17.83;12.88;;;;;;;;;;5124741;28;20206;-59
2022/01/19 08:25:05;;;;;;;18.42;12.75;;;;;;;;;;5123956;28;20413;-59
2022/01/19 08:27:32;;;;;;;22.35;13.27;;;;;;;;;;5120600;28;20214;-54
2022/01/19 08:29:59;;;;;;;20.95;13.18;;;;;;;;;;5118572;28;20214;-55
2022/01/19 08:32:26;;;;;;;18.15;13.00;;;;;;;;;;5119549;28;20207;-55
2022/01/19 08:34:52;;;;;;;17.73;12.35;;;;;;;;;;5107825;28;20204;-55
2022/01/19 08:37:19;;;;;;;18.17;13.10;;;;;;;;;;5109001;28;20237;-55
2022/01/19 08:39:45;;;;;;;18.35;12.85;;;;;;;;;;5118238;28;20333;-54
2022/01/19 08:42:12;;;;;;;20.08;14.23;;;;;;;;;;5119343;28;20348;-55
2022/01/19 08:44:38;;;;;;;20.27;14.13;;;;;;;;;;5119286;28;20219;-55
2022/01/19 08:47:07;;;;;;;20.55;14.38;;;;;;;;;;5118621;28;20195;-56
2022/01/19 08:49:34;;;;;;;21.50;14.88;;;;;;;;;;5118050;28;20215;-53
2022/01/19 08:52:01;;;;;;;24.67;15.32;;;;;;;;;;5119361;28;20418;-54
2022/01/19 08:54:27;;;;;;;25.60;15.60;;;;;;;;;;5122017;27;20207;-55
2022/01/19 08:56:54;;;;;;;23.83;15.02;;;;;;;;;;5098695;28;20235;-55
2022/01/19 08:59:21;;;;;;;24.00;15.23;;;;;;;;;;5118046;28;20238;-56
2022/01/19 09:01:47;;;;;;;22.13;14.48;;;;;;;;;;5118500;28;20213;-54
2022/01/19 09:04:15;;;;;;;21.67;14.90;;;;;;;;;;5123777;27;20637;-56
2022/01/19 09:06:41;;;;;;;25.02;15.02;;;;;;;;;;5138905;27;20411;-55
2022/01/19 09:09:08;;;;;;;19.52;14.38;;;;;;;;;;5105169;27;20214;-55
2022/01/19 09:11:34;;;;;;;23.67;14.45;;;;;;;;;;5098124;28;20452;-55
2022/01/19 09:14:02;;;;;;;23.13;15.93;;;;;;;;;;5098537;28;20207;-55
2022/01/19 09:16:28;;;;;;;22.27;14.45;;;;;;;;;;5099165;28;20212;-55
2022/01/19 09:18:55;;;;;;;22.55;15.07;;;;;;;;;;5098158;28;20508;-54
2022/01/19 09:21:23;;;;;;;23.63;15.63;;;;;;;;;;5098118;28;20216;-56
2022/01/19 09:23:49;;;;;;;22.33;14.82;;;;;;;;;;5099889;28;20239;-56
2022/01/19 09:26:15;;;;;;;20.83;14.00;;;;;;;;;;5099842;28;20208;-53
2022/01/19 09:28:42;;;;;;;17.08;12.85;;;;;;;;;;5116784;28;20243;-56
2022/01/19 09:31:12;;;;;;;17.63;12.20;;;;;;;;;;5118355;28;20214;-54
2022/01/19 09:33:38;;;;;;;15.20;12.15;;;;;;;;;;5116646;28;20472;-54
2022/01/19 09:36:18;;;;;;;18.20;12.82;;;;;;;;;;5097711;28;20418;-59
2022/01/19 09:38:46;;;;;;;19.13;12.73;;;;;;;;;;5098232;28;20471;-58
2022/01/19 09:41:12;;;;;;;22.02;13.45;;;;;;;;;;5117840;28;20206;-58
2022/01/19 09:43:38;;;;;;;17.33;12.63;;;;;;;;;;5117734;28;20226;-58
2022/01/19 09:46:05;;;;;;;15.90;12.30;;;;;;;;;;5117512;28;20547;-59
2022/01/19 09:48:33;;;;;;;19.20;13.80;;;;;;;;;;5117732;28;20207;-57
2022/01/19 09:50:59;;;;;;;19.00;12.23;;;;;;;;;;5118005;28;20209;-57
2022/01/19 09:53:26;;;;;;;18.98;12.32;;;;;;;;;;5110713;28;20214;-59
2022/01/19 09:55:54;;;;;;;18.63;12.80;;;;;;;;;;5129901;27;20417;-58
2022/01/19 09:58:22;;;;;;;17.75;12.32;;;;;;;;;;5123151;27;20433;-60
2022/01/19 10:00:48;;;;;;;18.60;12.18;;;;;;;;;;5111833;28;20203;-60
2022/01/19 10:03:15;;;;;;;18.38;11.63;;;;;;;;;;5120221;28;20229;-53
2022/01/19 10:05:57;;;;;;;20.65;12.27;;;;;;;;;;5131588;27;20206;-55
2022/01/19 10:08:28;;;;;;;20.52;12.50;;;;;;;;;;5125798;27;20210;-55
2022/01/19 10:11:06;;;;;;;21.27;12.95;;;;;;;;;;5117518;28;20471;-56
2022/01/19 10:19:12;;;;;;;15.95;11.98;;;;;;;;;;5122591;27;20210;-53
2022/01/19 10:21:55;;;;;;;15.90;12.00;;;;;;;;;;5117324;28;20419;-53
2022/01/19 10:24:32;;;;;;;19.98;12.30;;;;;;;;;;5099984;28;20399;-55
2022/01/19 10:27:17;;;;;;;22.48;11.93;;;;;;;;;;5096026;28;20424;-54
2022/01/19 10:29:43;;;;;;;19.30;12.32;;;;;;;;;;5096870;28;20409;-55
2022/01/19 10:32:09;;;;;;;19.27;12.40;;;;;;;;;;5097265;28;20214;-59
2022/01/19 10:34:36;;;;;;;21.02;12.30;;;;;;;;;;5115860;28;20234;-60
2022/01/19 10:37:04;;;;;;;20.40;13.18;;;;;;;;;;5119050;28;20223;-58
2022/01/19 10:39:39;;;;;;;17.73;11.52;;;;;;;;;;5119589;28;20562;-59
2022/01/19 10:42:09;;;;;;;19.23;12.63;;;;;;;;;;5119759;28;20214;-59
2022/01/19 10:44:36;;;;;;;19.48;12.38;;;;;;;;;;5101474;28;20223;-58
2022/01/19 10:47:03;;;;;;;15.68;11.85;;;;;;;;;;5113544;28;20203;-60
2022/01/19 10:49:45;;;;;;;18.00;12.98;;;;;;;;;;5116728;28;20207;-56
2022/01/19 10:52:24;;;;;;;13.98;11.38;;;;;;;;;;5116895;28;20206;-58
2022/01/19 10:54:51;;;;;;;19.50;12.60;;;;;;;;;;5116212;28;20246;-57
2022/01/19 10:57:19;;;;;;;16.08;11.27;;;;;;;;;;5116602;28;20223;-57
2022/01/19 10:59:45;;;;;;;14.82;10.85;;;;;;;;;;5116584;28;20432;-54
2022/01/19 11:02:12;;;;;;;11.98;10.30;;;;;;;;;;5117143;28;20230;-55
2022/01/19 11:04:39;;;;;;;17.38;11.00;;;;;;;;;;5113788;28;20474;-60
2022/01/19 11:07:08;;;;;;;13.00;11.60;;;;;;;;;;5096512;28;20407;-59
2022/01/19 11:09:43;;;;;;;14.48;11.15;;;;;;;;;;5113501;28;20238;-59
2022/01/19 11:12:13;;;;;;;16.38;11.18;;;;;;;;;;5117035;28;20221;-59
2022/01/19 11:14:41;;;;;;;19.05;11.48;;;;;;;;;;5098634;28;20215;-54
2022/01/19 11:17:08;;;;;;;13.98;10.38;;;;;;;;;;5095978;28;20412;-55
2022/01/19 11:19:36;;;;;;;16.58;10.40;;;;;;;;;;5096073;28;20207;-54
2022/01/19 11:22:08;;;;;;;14.18;10.02;;;;;;;;;;5096559;28;20208;-54
2022/01/19 11:24:41;;;;;;;18.50;10.25;;;;;;;;;;5111907;28;20214;-55
2022/01/19 11:27:09;;;;;;;17.52;10.63;;;;;;;;;;5116517;28;20398;-55
2022/01/19 11:29:38;;;;;;;11.43;9.05;;;;;;;;;;5115902;28;20579;-55
2022/01/19 11:32:14;;;;;;;12.90;10.43;;;;;;;;;;5116181;28;20279;-54
2022/01/19 11:34:46;;;;;;;20.55;10.25;;;;;;;;;;5116636;28;20217;-54
2022/01/19 11:37:12;;;;;;;12.13;9.60;;;;;;;;;;5116747;28;20219;-56
2022/01/19 11:39:59;;;;;;;14.65;9.65;;;;;;;;;;5122919;28;20230;-54
2022/01/19 11:42:25;;;;;;;11.82;8.93;;;;;;;;;;5122828;28;20210;-55
2022/01/19 11:44:52;;;;;;;13.25;9.52;;;;;;;;;;5122979;28;20230;-54
2022/01/19 11:47:22;;;;;;;17.02;10.30;;;;;;;;;;5122915;28;20266;-57
2022/01/19 11:49:50;;;;;;;12.65;9.50;;;;;;;;;;5123301;28;20207;-56
2022/01/19 11:52:19;;;;;;;9.63;8.63;;;;;;;;;;5122755;28;20210;-57
2022/01/19 11:54:45;;;;;;;10.38;8.85;;;;;;;;;;5102366;28;20196;-56
2022/01/19 11:57:13;;;;;;;15.70;10.13;;;;;;;;;;5102433;28;20219;-53
2022/01/19 11:59:58;;;;;;;15.43;8.52;;;;;;;;;;5122391;28;20207;-53
2022/01/19 12:02:37;;;;;;;15.57;9.90;;;;;;;;;;5103833;28;20203;-52
2022/01/19 12:05:15;;;;;;;12.00;9.35;;;;;;;;;;5125015;27;20206;-54
2022/01/19 12:07:43;;;;;;;12.65;8.43;;;;;;;;;;5143194;27;20186;-54
2022/01/19 12:10:10;;;;;;;15.98;9.20;;;;;;;;;;5139081;27;20209;-54
2022/01/19 12:12:43;;;;;;;13.50;9.75;;;;;;;;;;5102684;28;20203;-54
2022/01/19 12:15:31;;;;;;;15.45;9.40;;;;;;;;;;5119808;28;20195;-55
2022/01/19 12:18:09;;;;;;;12.90;8.43;;;;;;;;;;5101999;28;20295;-55
2022/01/19 12:20:50;;;;;;;10.05;8.32;;;;;;;;;;5101959;28;20218;-55
2022/01/19 12:23:27;;;;;;;9.60;8.27;;;;;;;;;;5110423;28;20202;-55
2022/01/19 12:25:54;;;;;;;16.45;9.55;;;;;;;;;;5123802;28;20395;-60
2022/01/19 12:28:35;;;;;;;9.65;8.65;;;;;;;;;;5126018;28;20499;-60
2022/01/19 12:31:29;;;;;;;11.85;8.52;;;;;;;;;;5106285;27;20211;-60
2022/01/19 12:34:18;;;;;;;13.60;9.27;;;;;;;;;;5105638;28;20192;-60
2022/01/19 12:36:47;;;;;;;13.40;8.90;;;;;;;;;;5099252;28;20211;-61
2022/01/19 12:39:32;;;;;;;9.95;8.80;;;;;;;;;;5106203;28;20220;-59
2022/01/19 12:41:59;;;;;;;11.85;9.40;;;;;;;;;;5104031;28;20204;-60
2022/01/19 12:44:38;;;;;;;15.70;9.48;;;;;;;;;;5103380;28;20204;-59
2022/01/19 12:47:06;;;;;;;16.48;10.13;;;;;;;;;;5122958;28;20207;-60
2022/01/19 12:49:33;;;;;;;13.05;10.63;;;;;;;;;;5110198;28;20219;-59
2022/01/19 12:52:01;;;;;;;17.58;10.48;;;;;;;;;;5103036;28;20212;-54
2022/01/19 12:54:28;;;;;;;16.08;11.88;;;;;;;;;;5101305;28;20222;-53
2022/01/19 12:56:56;;;;;;;14.30;10.90;;;;;;;;;;5101852;28;20437;-54
2022/01/19 12:59:23;;;;;;;18.52;11.25;;;;;;;;;;5113511;28;20254;-54
2022/01/19 13:01:49;;;;;;;14.65;12.07;;;;;;;;;;5121719;28;20203;-56
2022/01/19 13:04:23;;;;;;;20.30;12.98;;;;;;;;;;5126628;27;20201;-53
2022/01/19 13:06:49;;;;;;;22.52;12.68;;;;;;;;;;5142478;27;20196;-59
2022/01/19 13:09:26;;;;;;;16.55;12.30;;;;;;;;;;5121877;27;20199;-60
2022/01/19 13:11:54;;;;;;;18.88;12.45;;;;;;;;;;5101100;28;20515;-59
2022/01/19 13:14:23;;;;;;;20.70;11.93;;;;;;;;;;5101107;28;20200;-60
2022/01/19 13:16:52;;;;;;;20.38;12.68;;;;;;;;;;5107655;28;20559;-60
2022/01/19 13:19:20;;;;;;;17.00;11.50;;;;;;;;;;5120345;28;20230;-59
2022/01/19 13:21:47;;;;;;;16.60;10.52;;;;;;;;;;5121197;28;20203;-60
2022/01/19 13:24:17;;;;;;;16.95;11.02;;;;;;;;;;5122880;28;20191;-60
2022/01/19 13:26:48;;;;;;;17.20;10.70;;;;;;;;;;5119159;28;20196;-58
2022/01/19 13:29:22;;;;;;;15.25;10.68;;;;;;;;;;5105081;28;20192;-60
2022/01/19 13:31:56;;;;;;;15.52;10.23;;;;;;;;;;5116035;28;20187;-60
2022/01/19 13:34:23;;;;;;;16.25;9.95;;;;;;;;;;5110840;28;20207;-60
2022/01/19 13:36:54;;;;;;;16.38;9.57;;;;;;;;;;5104694;28;20204;-60
2022/01/19 13:39:21;;;;;;;13.32;9.63;;;;;;;;;;5104214;28;20211;-59
2022/01/19 13:41:50;;;;;;;14.63;9.05;;;;;;;;;;5103887;28;20204;-60
2022/01/19 13:44:21;;;;;;;11.13;9.02;;;;;;;;;;5105036;28;20397;-58
2022/01/19 13:46:47;;;;;;;15.45;10.25;;;;;;;;;;5117635;28;20205;-58
2022/01/19 13:49:14;;;;;;;28.08;9.45;;;;;;;;;;5124522;28;20397;-57
2022/01/19 13:51:42;;;;;;;14.07;8.95;;;;;;;;;;5123646;28;20203;-59
2022/01/19 13:54:09;;;;;;;190.82;17.40;;;;;;;;;;5110192;28;20199;-60
2022/01/19 13:56:36;;;;;;;356.45;26.52;;;;;;;;;;5126223;27;20198;-56
2022/01/19 13:59:06;;;;;;;83.47;12.73;;;;;;;;;;5130640;27;20546;-56
2022/01/19 14:01:33;;;;;;;216.55;20.13;;;;;;;;;;5102822;28;20208;-57
2022/01/19 14:04:04;;;;;;;67.88;10.98;;;;;;;;;;5106922;27;20215;-56
2022/01/19 14:06:32;;;;;;;144.25;16.95;;;;;;;;;;5140936;27;20272;-56
2022/01/19 14:09:12;;;;;;;119.30;16.13;;;;;;;;;;5141260;27;20206;-54
2022/01/19 14:11:39;;;;;;;86.78;13.30;;;;;;;;;;5140176;27;20386;-56
2022/01/19 14:14:08;;;;;;;28.45;9.15;;;;;;;;;;5105798;28;20206;-55
2022/01/19 14:16:38;;;;;;;168.35;19.52;;;;;;;;;;5111789;28;20483;-55
2022/01/19 14:19:12;;;;;;;71.38;13.48;;;;;;;;;;5110752;28;20234;-59
2022/01/19 14:21:58;;;;;;;24.95;9.85;;;;;;;;;;5123681;28;20540;-59
2022/01/19 14:24:25;;;;;;;21.25;10.07;;;;;;;;;;5142979;27;20213;-60
2022/01/19 14:26:52;;;;;;;12.23;8.98;;;;;;;;;;5143172;27;20202;-59
2022/01/19 14:29:20;;;;;;;18.08;10.18;;;;;;;;;;5134645;27;20405;-59
2022/01/19 14:31:50;;;;;;;14.60;9.65;;;;;;;;;;5123662;28;20203;-59
2022/01/19 14:34:16;;;;;;;12.35;9.27;;;;;;;;;;5123835;28;20240;-58
2022/01/19 14:36:43;;;;;;;23.83;11.02;;;;;;;;;;5121865;28;20223;-59
2022/01/19 14:39:09;;;;;;;15.85;9.52;;;;;;;;;;5115579;28;20415;-59
2022/01/19 14:41:37;;;;;;;18.60;10.00;;;;;;;;;;5103564;28;20206;-59
2022/01/19 14:44:08;;;;;;;18.23;10.50;;;;;;;;;;5102880;28;20233;-59
2022/01/19 14:46:41;;;;;;;15.25;10.23;;;;;;;;;;5102414;28;20224;-58
2022/01/19 14:49:07;;;;;;;20.95;15.25;;;;;;;;;;5106269;28;20570;-59
2022/01/19 14:51:37;;;;;;;23.40;11.93;;;;;;;;;;5121631;28;20206;-59
2022/01/19 14:54:05;;;;;;;13.30;9.45;;;;;;;;;;5116447;28;20241;-59
2022/01/19 14:56:32;;;;;;;12.18;7.70;;;;;;;;;;5118738;28;20199;-53
2022/01/19 14:58:59;;;;;;;11.40;7.18;;;;;;;;;;5114455;28;20222;-54
2022/01/19 15:01:26;;;;;;;6.93;6.28;;;;;;;;;;5117972;28;20282;-58
2022/01/19 15:03:54;;;;;;;8.57;6.63;;;;;;;;;;5121969;28;20199;-58
2022/01/19 15:06:21;;;;;;;10.63;6.63;;;;;;;;;;5129825;28;20210;-58
2022/01/19 15:08:47;;;;;;;6.93;6.22;;;;;;;;;;5101703;28;20204;-58
2022/01/19 15:11:15;;;;;;;7.70;6.13;;;;;;;;;;5100217;28;20207;-58
2022/01/19 15:13:42;;;;;;;7.95;6.57;;;;;;;;;;5101399;28;20568;-58
2022/01/19 15:16:08;;;;;;;9.20;6.47;;;;;;;;;;5101775;28;20208;-60
2022/01/19 15:18:36;;;;;;;6.90;6.30;;;;;;;;;;5100369;28;20224;-59
2022/01/19 15:21:04;;;;;;;9.32;6.72;;;;;;;;;;5100170;28;20219;-59
2022/01/19 15:23:30;;;;;;;7.15;6.45;;;;;;;;;;5102340;28;20208;-59
2022/01/19 15:25:57;;;;;;;8.68;7.03;;;;;;;;;;5101394;28;20208;-59
2022/01/19 15:28:24;;;;;;;9.50;6.70;;;;;;;;;;5104696;28;20196;-59
2022/01/19 15:30:51;;;;;;;9.38;7.00;;;;;;;;;;5122850;28;20206;-58
2022/01/19 15:33:18;;;;;;;9.25;6.95;;;;;;;;;;5120616;28;20406;-58
2022/01/19 15:35:44;;;;;;;9.13;6.97;;;;;;;;;;5120484;28;20559;-60
2022/01/19 15:38:12;;;;;;;10.10;7.93;;;;;;;;;;5119472;28;20207;-56
2022/01/19 15:40:39;;;;;;;9.82;7.50;;;;;;;;;;5116708;28;20203;-56
2022/01/19 15:43:07;;;;;;;10.27;8.02;;;;;;;;;;5120781;28;20531;-57
2022/01/19 15:45:35;;;;;;;18.05;12.60;;;;;;;;;;5110170;28;20288;-60